Time;durP1;ratioP1;P1;durP2;ratioP2;P2;SDS_P1;SDS_P2;PMS_P1;PMS_P2;Temp;Humidity;BMP_temperature;BMP_pressure;BME280_temperature;BME280_humidity;BME280_pressure;Samples;Min_cycle;Max_cycle;Signal;HPM_P1;HPM_P2
2022/03/22 00:00:23;;;;;;;29.23;18.55;;;;;;;9.25;39.01;103185.19;5090795;28;20480;-62
2022/03/22 00:02:50;;;;;;;30.15;18.33;;;;;;;9.22;38.91;103193.09;5072251;28;20048;-62
2022/03/22 00:05:17;;;;;;;27.67;18.27;;;;;;;9.15;39.03;103192.28;5071913;28;20415;-62
2022/03/22 00:07:43;;;;;;;26.52;17.27;;;;;;;9.15;38.77;103200.16;5072070;28;20048;-62
2022/03/22 00:10:10;;;;;;;27.52;17.20;;;;;;;9.13;38.66;103201.91;5071889;28;20053;-62
2022/03/22 00:12:37;;;;;;;24.35;17.38;;;;;;;9.14;38.65;103198.41;5071957;28;20533;-62
2022/03/22 00:15:04;;;;;;;24.95;16.33;;;;;;;9.16;38.44;103201.00;5073869;28;20501;-63
2022/03/22 00:17:52;;;;;;;22.27;15.77;;;;;;;9.17;38.36;103204.47;5095332;28;20048;-64
2022/03/22 00:20:18;;;;;;;21.77;15.75;;;;;;;9.16;38.36;103203.63;5094999;28;20040;-65
2022/03/22 00:22:45;;;;;;;21.65;15.68;;;;;;;9.17;38.07;103194.00;5095396;28;20077;-65
2022/03/22 00:25:12;;;;;;;21.00;15.10;;;;;;;9.20;37.95;103204.47;5095511;28;20078;-65
2022/03/22 00:27:55;;;;;;;19.83;14.13;;;;;;;9.20;37.82;103199.22;5095186;28;20047;-65
2022/03/22 00:30:30;;;;;;;19.80;13.85;;;;;;;9.24;37.39;103204.44;5094096;28;20081;-62
2022/03/22 00:33:00;;;;;;;19.97;15.37;;;;;;;9.31;37.00;103207.84;5095156;28;20048;-62
2022/03/22 00:35:33;;;;;;;18.85;14.63;;;;;;;9.37;36.73;103209.50;5094947;28;20635;-62
2022/03/22 00:37:59;;;;;;;21.88;14.45;;;;;;;9.42;36.43;103210.31;5095300;28;20454;-64
2022/03/22 00:40:28;;;;;;;22.10;14.48;;;;;;;9.43;35.81;103205.06;5094935;28;20048;-63
2022/03/22 00:42:55;;;;;;;21.80;14.80;;;;;;;9.45;35.64;103210.28;5095090;28;20056;-62
2022/03/22 00:45:25;;;;;;;20.00;13.60;;;;;;;9.46;35.42;103212.88;5095025;28;20043;-62
2022/03/22 00:47:52;;;;;;;16.42;12.98;;;;;;;9.47;34.84;103209.38;5093812;28;20101;-62
2022/03/22 00:50:22;;;;;;;19.85;13.13;;;;;;;9.50;34.74;103215.47;5094860;28;20048;-62
2022/03/22 00:52:49;;;;;;;20.60;13.20;;;;;;;9.50;34.64;103207.59;5094744;28;20079;-62
2022/03/22 00:55:16;;;;;;;18.70;13.63;;;;;;;9.47;34.52;103214.63;5094751;28;20051;-62
2022/03/22 00:57:44;;;;;;;20.10;13.35;;;;;;;9.39;34.62;103210.38;5094605;28;20093;-62
2022/03/22 01:00:14;;;;;;;18.35;14.07;;;;;;;9.29;34.67;103215.72;5094619;28;20489;-62
2022/03/22 01:02:43;;;;;;;17.45;13.40;;;;;;;9.27;34.61;103227.97;5094521;28;20113;-62
2022/03/22 01:05:17;;;;;;;22.92;14.05;;;;;;;9.26;34.59;103220.97;5080651;28;20052;-62
2022/03/22 01:07:47;;;;;;;20.20;14.25;;;;;;;9.22;34.68;103226.25;5074128;28;20118;-63
2022/03/22 01:10:16;;;;;;;23.33;14.95;;;;;;;9.16;34.79;103224.59;5074265;28;20052;-62
2022/03/22 01:12:44;;;;;;;20.02;13.68;;;;;;;9.15;34.79;103214.97;5074133;28;20489;-62
2022/03/22 01:15:15;;;;;;;19.23;12.73;;;;;;;9.19;34.76;103215.81;5073823;28;20559;-62
2022/03/22 01:17:46;;;;;;;21.17;14.25;;;;;;;9.21;34.41;103209.69;5073942;28;20044;-62
2022/03/22 01:20:13;;;;;;;21.90;14.45;;;;;;;9.20;34.34;103210.56;5073578;28;20117;-62
2022/03/22 01:22:42;;;;;;;20.30;14.95;;;;;;;9.22;34.61;103211.44;5073909;28;20049;-62
2022/03/22 01:25:13;;;;;;;22.40;14.88;;;;;;;9.24;34.16;103216.63;5073996;28;20041;-62
2022/03/22 01:27:42;;;;;;;20.25;14.27;;;;;;;9.23;34.25;103215.78;5073877;28;20499;-62
2022/03/22 01:30:12;;;;;;;20.65;13.80;;;;;;;9.20;34.38;103210.56;5073959;28;20120;-62
2022/03/22 01:32:39;;;;;;;21.55;12.95;;;;;;;9.26;34.05;103207.88;5072930;28;20055;-62
2022/03/22 01:35:09;;;;;;;17.52;12.73;;;;;;;9.25;34.08;103205.28;5073625;28;20051;-62
2022/03/22 01:37:39;;;;;;;16.38;11.80;;;;;;;9.25;33.74;103200.91;5073067;28;20048;-64
2022/03/22 01:40:07;;;;;;;21.90;13.18;;;;;;;9.21;33.84;103204.44;5073576;28;20067;-62
2022/03/22 01:42:35;;;;;;;18.20;13.57;;;;;;;9.18;33.84;103195.75;5073270;28;20051;-62
2022/03/22 01:45:03;;;;;;;19.90;12.13;;;;;;;9.18;34.06;103182.66;5073438;28;20074;-62
2022/03/22 01:47:30;;;;;;;18.55;13.02;;;;;;;9.15;34.20;103191.41;5073359;28;20119;-62
2022/03/22 01:49:57;;;;;;;18.80;13.25;;;;;;;9.13;34.29;103185.34;5073304;28;20052;-62
2022/03/22 01:52:27;;;;;;;20.90;13.50;;;;;;;9.08;34.39;103179.28;5074748;28;20044;-62
2022/03/22 01:54:55;;;;;;;19.17;13.65;;;;;;;9.01;34.75;103183.69;5092712;28;20043;-63
2022/03/22 01:57:24;;;;;;;20.85;13.48;;;;;;;8.96;35.01;103183.78;5093584;28;20044;-62
2022/03/22 01:59:51;;;;;;;18.80;13.48;;;;;;;8.94;35.00;103189.91;5093503;28;20124;-64
2022/03/22 02:07:50;;;;;;;21.70;13.70;;;;;;;8.81;35.60;103186.53;5093314;28;20048;-63
2022/03/22 02:10:18;;;;;;;22.08;12.75;;;;;;;8.74;35.67;103187.47;5091992;28;20110;-62
2022/03/22 02:12:45;;;;;;;17.42;11.95;;;;;;;8.74;35.67;103184.88;5091935;28;20105;-62
2022/03/22 02:15:12;;;;;;;17.55;12.60;;;;;;;8.71;35.58;103188.38;5092824;28;20112;-62
2022/03/22 02:17:41;;;;;;;18.98;13.18;;;;;;;8.71;35.70;103180.53;5092950;28;20538;-64
2022/03/22 02:20:08;;;;;;;18.55;12.02;;;;;;;8.75;35.68;103184.84;5093071;28;20052;-65
2022/03/22 02:22:49;;;;;;;17.65;11.45;;;;;;;8.83;35.42;103182.16;5092998;28;20052;-64
2022/03/22 02:25:15;;;;;;;17.63;10.77;;;;;;;8.92;35.04;103183.81;5088971;28;20401;-64
2022/03/22 02:27:46;;;;;;;15.80;10.57;;;;;;;9.05;33.97;103176.69;5072621;28;20052;-64
2022/03/22 02:30:13;;;;;;;14.75;10.55;;;;;;;9.11;34.02;103176.63;5072585;28;20083;-65
2022/03/22 02:32:48;;;;;;;18.08;11.48;;;;;;;9.16;33.77;103172.19;5072496;28;20044;-62
2022/03/22 02:35:14;;;;;;;15.57;10.93;;;;;;;9.19;33.34;103164.28;5072500;28;20393;-62
2022/03/22 02:37:41;;;;;;;18.13;10.18;;;;;;;9.24;33.17;103173.00;5072616;28;20117;-64
2022/03/22 02:40:08;;;;;;;15.98;10.25;;;;;;;9.26;32.81;103171.19;5072559;28;20542;-62
2022/03/22 02:42:35;;;;;;;16.85;10.85;;;;;;;9.26;32.55;103160.72;5077091;28;20455;-62
2022/03/22 02:45:01;;;;;;;12.63;9.90;;;;;;;9.29;32.43;103165.94;5084540;28;20040;-62
2022/03/22 02:47:28;;;;;;;13.18;9.73;;;;;;;9.28;32.15;103169.44;5072321;28;20048;-62
2022/03/22 02:49:54;;;;;;;13.27;10.65;;;;;;;9.28;32.07;103169.44;5088125;28;20109;-63
2022/03/22 02:52:21;;;;;;;13.15;9.63;;;;;;;9.32;31.88;103170.28;5092605;28;20077;-63
2022/03/22 02:54:47;;;;;;;17.75;10.07;;;;;;;9.30;31.87;103172.88;5092639;28;20048;-64
2022/03/22 02:57:14;;;;;;;18.55;10.25;;;;;;;9.28;31.85;103171.16;5092374;28;20481;-63
2022/03/22 02:59:40;;;;;;;17.90;10.38;;;;;;;9.28;32.01;103173.78;5092306;28;20066;-63
2022/03/22 03:02:07;;;;;;;17.67;10.60;;;;;;;9.27;31.78;103172.09;5074268;28;20045;-62
2022/03/22 03:04:34;;;;;;;13.50;9.68;;;;;;;9.26;32.00;103175.59;5072177;28;20066;-63
2022/03/22 03:07:00;;;;;;;18.92;10.32;;;;;;;9.18;32.10;103178.28;5072192;28;20094;-62
2022/03/22 03:09:27;;;;;;;17.83;11.00;;;;;;;9.13;32.47;103185.34;5071999;28;20554;-62
2022/03/22 03:11:53;;;;;;;14.57;10.10;;;;;;;9.08;32.30;103187.16;5072259;28;20048;-62
2022/03/22 03:14:38;;;;;;;16.30;10.35;;;;;;;9.06;32.45;103186.28;5071931;28;20052;-62
2022/03/22 03:17:07;;;;;;;13.98;10.05;;;;;;;9.02;32.55;103185.44;5082173;28;20089;-62
2022/03/22 03:19:33;;;;;;;14.05;9.40;;;;;;;8.98;32.65;103191.59;5077147;28;20044;-63
2022/03/22 03:22:02;;;;;;;14.75;9.50;;;;;;;8.92;32.83;103189.91;5072237;28;20090;-62
2022/03/22 03:24:30;;;;;;;12.73;9.70;;;;;;;8.92;33.26;103189.03;5070931;28;20094;-66
2022/03/22 03:26:57;;;;;;;15.25;10.10;;;;;;;8.83;33.17;103183.00;5072016;28;20102;-65
2022/03/22 03:29:25;;;;;;;12.10;9.35;;;;;;;8.79;33.54;103191.78;5071957;28;20078;-65
2022/03/22 03:31:52;;;;;;;16.50;9.45;;;;;;;8.75;33.71;103186.59;5072043;28;20098;-67
2022/03/22 03:34:19;;;;;;;15.32;9.52;;;;;;;8.73;33.62;103190.97;5071913;28;20044;-65
2022/03/22 03:36:46;;;;;;;13.48;9.95;;;;;;;8.70;33.90;103191.88;5071609;28;20048;-66
2022/03/22 03:39:13;;;;;;;15.52;10.38;;;;;;;8.70;34.07;103193.59;5071928;28;20049;-62
2022/03/22 03:41:59;;;;;;;17.30;9.35;;;;;;;8.74;33.80;103192.72;5071734;28;20088;-62
2022/03/22 03:47:15;;;;;;;14.73;9.82;;;;;;;8.84;33.14;103194.34;5071757;28;20052;-62
2022/03/22 03:49:47;;;;;;;14.35;9.57;;;;;;;8.84;33.24;103191.75;5071911;28;20044;-62
2022/03/22 03:52:17;;;;;;;15.02;9.00;;;;;;;8.81;33.15;103191.75;5071994;28;20098;-62
2022/03/22 03:54:44;;;;;;;25.27;10.45;;;;;;;8.74;33.37;103190.94;5071512;28;20059;-61
2022/03/22 03:57:12;;;;;;;18.00;10.68;;;;;;;8.68;33.49;103198.00;5075374;28;20067;-62
2022/03/22 03:59:40;;;;;;;22.00;10.85;;;;;;;8.59;34.16;103194.56;5075265;28;20097;-62
2022/03/22 04:02:08;;;;;;;21.98;10.88;;;;;;;8.51;34.17;103196.41;5074028;28;20121;-62
2022/03/22 04:04:35;;;;;;;23.30;10.63;;;;;;;8.48;34.42;103192.06;5091094;28;20534;-62
2022/03/22 04:07:06;;;;;;;18.13;9.27;;;;;;;8.47;34.62;103192.94;5092151;28;20114;-62
2022/03/22 04:09:37;;;;;;;14.35;9.38;;;;;;;8.47;34.54;103198.16;5091998;28;20060;-62
2022/03/22 04:12:05;;;;;;;17.33;11.02;;;;;;;8.44;34.55;103203.41;5077758;28;20056;-65
2022/03/22 04:14:32;;;;;;;16.65;10.07;;;;;;;8.35;34.71;103200.84;5071554;28;20052;-62
2022/03/22 04:16:58;;;;;;;21.13;9.73;;;;;;;8.28;34.77;103204.41;5071729;28;20057;-62
2022/03/22 04:19:29;;;;;;;23.15;10.98;;;;;;;8.25;34.74;103210.53;5071745;28;20044;-63
2022/03/22 04:21:56;;;;;;;14.18;9.40;;;;;;;8.26;34.41;103200.91;5071380;28;20097;-62
2022/03/22 04:24:22;;;;;;;16.38;8.90;;;;;;;8.24;34.62;103205.28;5071599;28;20097;-62
2022/03/22 04:26:49;;;;;;;15.07;9.65;;;;;;;8.18;34.50;103207.06;5079386;28;20142;-62
2022/03/22 04:34:47;;;;;;;16.60;9.52;;;;;;;8.13;34.83;103213.22;5091676;28;20051;-63
2022/03/22 04:37:15;;;;;;;15.85;9.40;;;;;;;8.08;35.10;103215.00;5091839;28;20044;-62
2022/03/22 04:39:44;;;;;;;14.85;9.60;;;;;;;8.08;35.02;103210.63;5091345;28;20113;-62
2022/03/22 04:42:13;;;;;;;18.80;10.27;;;;;;;8.10;35.12;103213.22;5091401;28;20549;-62
2022/03/22 04:44:40;;;;;;;16.55;9.32;;;;;;;8.07;35.29;103215.88;5076643;28;20044;-62
2022/03/22 04:47:07;;;;;;;15.23;8.50;;;;;;;8.07;35.30;103219.34;5070966;28;20492;-64
2022/03/22 04:49:35;;;;;;;13.80;8.00;;;;;;;8.18;34.83;103214.91;5071141;28;20122;-62
2022/03/22 04:57:32;;;;;;;14.10;8.05;;;;;;;8.50;33.27;103224.28;5071018;28;20041;-65
2022/03/22 04:59:59;;;;;;;12.85;8.13;;;;;;;8.55;32.89;103226.88;5071065;28;20048;-64
2022/03/22 05:02:25;;;;;;;11.52;8.38;;;;;;;8.59;32.50;103239.06;5083360;28;20078;-65
2022/03/22 05:04:52;;;;;;;14.93;8.23;;;;;;;8.59;32.41;103231.22;5091115;28;20097;-65
2022/03/22 05:07:18;;;;;;;11.63;7.90;;;;;;;8.62;31.89;103236.44;5089680;28;20450;-64
2022/03/22 05:09:45;;;;;;;14.05;8.02;;;;;;;8.65;31.81;103235.53;5091127;28;20117;-64
2022/03/22 05:12:13;;;;;;;12.23;7.72;;;;;;;8.65;31.80;103239.00;5091243;28;20463;-65
2022/03/22 05:14:43;;;;;;;16.60;8.38;;;;;;;8.65;31.55;103244.25;5090308;28;20051;-63
2022/03/22 05:17:11;;;;;;;15.82;7.47;;;;;;;8.68;31.64;103243.34;5071357;28;20539;-65
2022/03/22 05:19:39;;;;;;;12.68;8.05;;;;;;;8.68;31.48;103232.88;5086593;28;20149;-65
2022/03/22 05:22:06;;;;;;;13.88;7.70;;;;;;;8.70;31.27;103240.72;5091030;28;20048;-65
2022/03/22 05:24:33;;;;;;;11.98;7.68;;;;;;;8.71;31.41;103239.84;5077545;28;20117;-64
2022/03/22 05:27:02;;;;;;;13.00;7.60;;;;;;;8.73;31.22;103241.56;5070417;28;20082;-65
2022/03/22 05:29:29;;;;;;;13.23;7.57;;;;;;;8.71;31.17;103240.72;5070231;28;20049;-64
2022/03/22 05:31:56;;;;;;;10.75;7.60;;;;;;;8.72;31.11;103244.19;5089863;28;20044;-65
2022/03/22 05:34:23;;;;;;;13.52;7.50;;;;;;;8.75;31.02;103249.44;5090618;28;20127;-64
2022/03/22 05:36:50;;;;;;;12.82;8.15;;;;;;;8.83;30.83;103243.22;5080992;28;20076;-65
2022/03/22 05:39:17;;;;;;;11.30;7.50;;;;;;;8.86;30.81;103244.94;5070189;28;20501;-65
2022/03/22 05:41:44;;;;;;;11.38;7.35;;;;;;;8.88;30.79;103258.91;5070361;28;20048;-64
2022/03/22 05:44:12;;;;;;;13.73;8.27;;;;;;;8.95;30.70;103250.13;5087212;28;20071;-65
2022/03/22 05:46:40;;;;;;;14.30;8.38;;;;;;;8.98;30.59;103251.84;5089803;28;20052;-65
2022/03/22 05:49:10;;;;;;;8.30;5.70;;;;;;;9.91;32.43;103243.78;5090264;28;20089;-65
2022/03/22 05:51:37;;;;;;;12.85;8.45;;;;;;;9.82;32.90;103246.53;5089442;28;20097;-64
2022/03/22 05:54:03;;;;;;;11.30;7.18;;;;;;;9.66;32.77;103255.47;5079209;28;20386;-64
2022/03/22 05:56:30;;;;;;;13.40;7.45;;;;;;;9.59;32.58;103255.53;5070084;28;20048;-65
2022/03/22 05:59:00;;;;;;;13.25;8.18;;;;;;;9.55;32.23;103264.34;5069880;28;20114;-67
2022/03/22 06:01:28;;;;;;;10.68;7.35;;;;;;;9.54;31.56;103261.75;5069650;28;20078;-64
2022/03/22 06:03:55;;;;;;;11.10;8.07;;;;;;;9.54;31.40;103265.22;5070051;28;20048;-64
2022/03/22 06:06:21;;;;;;;13.02;8.27;;;;;;;9.54;31.02;103261.75;5069732;28;20044;-64
2022/03/22 06:08:49;;;;;;;13.15;8.52;;;;;;;9.53;30.95;103267.88;5069613;28;20102;-63
2022/03/22 06:11:17;;;;;;;12.65;8.27;;;;;;;9.51;30.92;103267.88;5069026;28;20084;-62
2022/03/22 06:13:44;;;;;;;15.25;8.25;;;;;;;9.51;31.13;103264.38;5069725;28;20082;-62
2022/03/22 06:16:11;;;;;;;11.85;8.13;;;;;;;9.51;31.14;103265.28;5069165;28;20102;-61
2022/03/22 06:18:38;;;;;;;18.50;9.13;;;;;;;9.57;30.88;103267.81;5068754;28;20048;-62
2022/03/22 06:21:05;;;;;;;11.80;8.02;;;;;;;9.59;30.75;103273.91;5069375;28;20052;-62
2022/03/22 06:23:32;;;;;;;14.75;8.63;;;;;;;9.66;30.84;103261.56;5069376;28;20670;-61
2022/03/22 06:26:01;;;;;;;13.65;8.40;;;;;;;9.71;30.63;103264.16;5069479;28;20049;-61
2022/03/22 06:28:28;;;;;;;12.82;8.25;;;;;;;9.74;30.58;103274.63;5084028;28;20044;-63
2022/03/22 06:30:55;;;;;;;14.55;8.00;;;;;;;9.76;30.36;103270.19;5075482;28;20048;-68
2022/03/22 06:33:22;;;;;;;14.52;8.27;;;;;;;9.78;30.28;103263.19;5070660;28;20043;-63
2022/03/22 06:35:50;;;;;;;12.57;8.30;;;;;;;9.85;30.42;103269.22;5080530;28;20048;-63
2022/03/22 06:38:17;;;;;;;13.35;7.82;;;;;;;9.88;30.21;103275.31;5089303;28;20078;-63
2022/03/22 06:40:45;;;;;;;15.07;8.15;;;;;;;9.93;30.26;103273.47;5089232;28;20108;-63
2022/03/22 06:43:14;;;;;;;14.30;8.48;;;;;;;9.98;30.41;103276.06;5089529;28;20059;-67
2022/03/22 06:45:41;;;;;;;15.73;9.38;;;;;;;10.02;30.28;103279.47;5072840;28;20055;-64
2022/03/22 06:48:08;;;;;;;15.55;8.88;;;;;;;10.11;30.15;103282.00;5069074;28;20462;-64
2022/03/22 06:50:37;;;;;;;16.42;8.73;;;;;;;10.19;30.17;103282.75;5068890;28;20054;-64
2022/03/22 06:53:05;;;;;;;24.83;8.15;;;;;;;10.90;30.89;103276.44;5068498;28;20041;-64
2022/03/22 06:55:33;;;;;;;15.82;9.00;;;;;;;10.96;30.91;103270.22;5068873;28;20052;-65
2022/03/22 06:58:00;;;;;;;15.77;8.90;;;;;;;11.02;30.56;103272.75;5068873;28;20044;-65
2022/03/22 07:00:31;;;;;;;14.00;8.90;;;;;;;11.14;29.86;103271.63;5069250;28;20343;-64
2022/03/22 07:03:03;;;;;;;14.35;8.48;;;;;;;11.29;29.35;103278.38;5078173;28;20074;-62
2022/03/22 07:05:30;;;;;;;13.57;7.85;;;;;;;11.42;28.95;103273.75;5088942;28;20052;-62
2022/03/22 07:07:57;;;;;;;12.38;7.97;;;;;;;11.53;28.48;103276.16;5088712;28;20052;-63
2022/03/22 07:10:25;;;;;;;14.38;8.75;;;;;;;11.66;27.94;103277.66;5084127;28;20097;-62
2022/03/22 07:12:59;;;;;;;13.73;8.10;;;;;;;11.77;27.77;103269.56;5088282;28;20048;-63
2022/03/22 07:15:29;;;;;;;13.82;8.70;;;;;;;11.92;27.54;103274.47;5087954;28;20052;-63
2022/03/22 07:18:03;;;;;;;13.98;7.93;;;;;;;12.20;27.04;103273.03;5085728;28;20044;-66
2022/03/22 07:20:30;;;;;;;15.73;8.50;;;;;;;12.27;27.01;103276.41;5086797;28;20446;-65
2022/03/22 07:22:59;;;;;;;15.10;8.63;;;;;;;12.38;26.74;103274.38;5088562;28;20048;-65
2022/03/22 07:25:26;;;;;;;13.98;9.05;;;;;;;12.62;26.64;103280.84;5088594;28;20048;-63
2022/03/22 07:27:54;;;;;;;16.08;9.02;;;;;;;12.68;26.55;103282.44;5088393;28;20052;-62
2022/03/22 07:30:22;;;;;;;18.83;8.85;;;;;;;12.82;26.74;103282.94;5085300;28;20527;-63
2022/03/22 07:32:49;;;;;;;15.95;8.68;;;;;;;13.13;26.57;103274.25;5091813;28;20534;-67
2022/03/22 07:35:19;;;;;;;11.65;7.70;;;;;;;13.18;26.71;103280.28;5091838;28;20044;-64
2022/03/22 07:37:48;;;;;;;14.02;7.85;;;;;;;13.30;26.38;103281.69;5090350;28;20051;-63
2022/03/22 07:40:16;;;;;;;17.15;8.00;;;;;;;13.42;26.24;103280.56;5091260;28;20048;-63
2022/03/22 07:42:43;;;;;;;18.70;8.43;;;;;;;13.53;26.12;103282.88;5090945;28;20040;-64
2022/03/22 07:45:11;;;;;;;17.38;8.88;;;;;;;13.67;25.98;103277.19;5092001;28;20047;-66
2022/03/22 07:47:38;;;;;;;14.38;8.13;;;;;;;13.81;25.81;103276.78;5091645;28;20052;-69
2022/03/22 07:53:06;;;;;;;10.60;7.72;;;;;;;14.06;25.26;103287.47;5087942;28;20109;-64
2022/03/22 07:55:39;;;;;;;12.68;7.53;;;;;;;14.19;25.11;103282.69;5076017;28;20049;-65
2022/03/22 07:58:07;;;;;;;13.32;7.97;;;;;;;14.32;24.97;103283.16;5072057;28;20090;-65
2022/03/22 08:00:37;;;;;;;15.55;8.52;;;;;;;14.45;24.81;103280.97;5087891;28;20044;-64
2022/03/22 08:03:08;;;;;;;13.65;8.95;;;;;;;14.60;24.62;103291.06;5091172;28;20048;-64
2022/03/22 08:05:37;;;;;;;11.65;8.18;;;;;;;14.67;24.57;103282.03;5091943;28;20117;-63
2022/03/22 08:08:05;;;;;;;13.35;8.00;;;;;;;14.76;24.23;103283.53;5092282;28;20052;-64
2022/03/22 08:10:52;;;;;;;10.70;7.72;;;;;;;14.89;23.65;103281.31;5087322;28;20128;-64
2022/03/22 08:13:18;;;;;;;13.07;7.28;;;;;;;15.07;23.38;103285.13;5070348;28;20408;-66
2022/03/22 08:15:45;;;;;;;12.30;7.65;;;;;;;15.19;22.96;103286.47;5071446;28;20057;-64
2022/03/22 08:18:12;;;;;;;11.23;7.97;;;;;;;15.28;22.48;103280.84;5071592;28;20059;-64
2022/03/22 08:20:38;;;;;;;13.85;7.70;;;;;;;15.38;22.42;103281.38;5071416;28;20477;-64
2022/03/22 08:23:06;;;;;;;10.77;7.53;;;;;;;15.55;21.90;103278.09;5070656;28;20081;-64
2022/03/22 08:25:39;;;;;;;10.90;7.18;;;;;;;15.67;21.75;103276.81;5071426;28;20057;-64
2022/03/22 08:28:08;;;;;;;10.40;7.47;;;;;;;15.68;21.47;103278.53;5071084;28;20080;-64
2022/03/22 08:30:36;;;;;;;11.32;7.68;;;;;;;15.89;21.50;103271.56;5087621;28;20397;-64
2022/03/22 08:33:07;;;;;;;15.63;8.15;;;;;;;16.06;21.38;103272.69;5090787;28;20386;-63
2022/03/22 08:35:35;;;;;;;12.48;7.53;;;;;;;16.11;21.27;103276.91;5091507;28;20492;-64
2022/03/22 08:38:03;;;;;;;10.75;7.47;;;;;;;16.30;21.12;103279.69;5091554;28;20048;-64
2022/03/22 08:40:30;;;;;;;12.52;7.90;;;;;;;16.36;21.10;103272.41;5091426;28;20537;-70
2022/03/22 08:42:58;;;;;;;12.40;7.18;;;;;;;16.39;20.63;103269.63;5083982;28;20040;-64
2022/03/22 08:45:27;;;;;;;11.40;7.68;;;;;;;16.56;20.63;103264.50;5070740;28;20435;-64
2022/03/22 08:47:54;;;;;;;9.85;6.95;;;;;;;16.74;20.35;103276.09;5071116;28;20055;-64
2022/03/22 08:50:25;;;;;;;10.25;7.30;;;;;;;16.85;20.19;103266.81;5070972;28;20843;-64
2022/03/22 08:52:54;;;;;;;14.95;7.35;;;;;;;16.82;20.08;103262.53;5070853;28;20045;-64
2022/03/22 08:55:22;;;;;;;12.20;7.18;;;;;;;17.00;19.64;103258.25;5070515;28;20416;-64
2022/03/22 08:57:49;;;;;;;9.77;7.18;;;;;;;17.11;19.30;103263.94;5070996;28;20048;-64
2022/03/22 09:00:19;;;;;;;15.48;7.13;;;;;;;17.33;19.01;103257.69;5084220;28;20063;-64
2022/03/22 09:02:48;;;;;;;10.32;7.07;;;;;;;17.50;19.18;103264.03;5090635;28;20043;-64
2022/03/22 09:08:01;;;;;;;12.40;6.97;;;;;;;17.82;19.01;103254.56;5090771;28;20511;-64
2022/03/22 09:10:30;;;;;;;12.18;7.55;;;;;;;17.94;18.70;103250.47;5090850;28;20055;-65
2022/03/22 09:12:57;;;;;;;10.55;7.47;;;;;;;18.06;18.47;103252.53;5090361;28;20048;-64
2022/03/22 09:15:26;;;;;;;12.63;7.57;;;;;;;18.18;18.19;103251.09;5086739;28;20097;-64
2022/03/22 09:17:54;;;;;;;11.02;7.07;;;;;;;18.26;18.25;103251.56;5088467;28;20583;-64
2022/03/22 09:20:22;;;;;;;14.05;6.80;;;;;;;18.34;17.98;103253.84;5090716;28;20439;-66
2022/03/22 09:22:53;;;;;;;12.32;7.68;;;;;;;18.47;17.77;103251.44;5089503;28;20131;-64
2022/03/22 09:25:22;;;;;;;9.80;7.53;;;;;;;18.64;17.54;103247.94;5089670;28;20052;-64
2022/03/22 09:27:49;;;;;;;8.02;5.80;;;;;;;18.74;17.84;103246.53;5090856;28;20067;-65
2022/03/22 09:30:17;;;;;;;11.63;6.68;;;;;;;18.80;18.22;103247.16;5088753;28;20047;-66
2022/03/22 09:32:43;;;;;;;10.38;7.00;;;;;;;18.84;17.60;103249.59;5090074;28;20912;-65
2022/03/22 09:35:12;;;;;;;8.68;6.85;;;;;;;18.95;17.60;103248.19;5090283;28;20048;-64
2022/03/22 09:37:41;;;;;;;10.05;6.90;;;;;;;19.16;17.16;103251.50;5089744;28;20089;-64
2022/03/22 09:40:09;;;;;;;11.13;6.88;;;;;;;19.30;17.30;103248.09;5090129;28;20076;-62
2022/03/22 09:42:42;;;;;;;10.57;6.93;;;;;;;19.38;17.59;103248.56;5089131;28;20454;-73
2022/03/22 09:45:11;;;;;;;8.65;6.72;;;;;;;19.42;17.25;103250.94;5088570;28;20048;-65
2022/03/22 09:47:38;;;;;;;11.30;7.15;;;;;;;19.58;16.77;103240.34;5068974;28;20057;-65
2022/03/22 09:50:09;;;;;;;11.70;6.43;;;;;;;19.75;16.67;103242.03;5069679;28;20066;-64
2022/03/22 09:52:37;;;;;;;10.30;6.53;;;;;;;19.92;16.29;103239.41;5068921;28;20045;-64
2022/03/22 09:55:05;;;;;;;11.23;6.90;;;;;;;19.94;16.70;103232.22;5069342;28;20094;-65
2022/03/22 09:57:32;;;;;;;7.45;6.60;;;;;;;20.06;16.46;103239.47;5069087;28;20052;-65
2022/03/22 09:59:59;;;;;;;9.85;7.15;;;;;;;20.19;16.18;103234.34;5080741;28;20048;-71
2022/03/22 10:02:28;;;;;;;19.38;6.88;;;;;;;20.32;15.63;103229.13;5086489;28;20048;-71
2022/03/22 10:04:54;;;;;;;12.20;6.80;;;;;;;20.39;15.70;103233.13;5069707;28;20056;-71
2022/03/22 10:07:23;;;;;;;9.63;5.82;;;;;;;20.49;15.39;103230.78;5068945;28;20091;-66
2022/03/22 10:10:02;;;;;;;11.98;6.47;;;;;;;20.70;14.94;103234.88;5069561;28;20048;-66
2022/03/22 10:12:34;;;;;;;10.88;6.70;;;;;;;20.77;14.50;103237.19;5085912;28;20048;-65
2022/03/22 10:15:16;;;;;;;11.23;7.20;;;;;;;20.87;14.19;103233.00;5089532;28;20063;-65
2022/03/22 10:17:43;;;;;;;11.27;6.70;;;;;;;20.98;14.18;103224.34;5089554;28;20543;-65
2022/03/22 10:20:21;;;;;;;10.05;6.57;;;;;;;21.04;14.18;103223.97;5087712;28;20051;-66
2022/03/22 10:22:59;;;;;;;10.38;6.78;;;;;;;21.23;14.33;103215.66;5080980;28;20048;-65
2022/03/22 10:25:27;;;;;;;10.02;6.68;;;;;;;21.41;14.33;103218.09;5089423;28;20040;-65
2022/03/22 10:27:55;;;;;;;8.75;6.40;;;;;;;21.47;14.19;103210.59;5089254;28;20105;-65
2022/03/22 10:30:25;;;;;;;12.30;6.70;;;;;;;21.60;14.25;103208.00;5088147;28;20044;-65
2022/03/22 10:32:53;;;;;;;9.00;7.30;;;;;;;21.72;13.92;103205.50;5078340;28;20041;-65
2022/03/22 10:35:20;;;;;;;13.77;6.47;;;;;;;21.82;14.04;103209.28;5086040;28;20542;-64
2022/03/22 10:37:49;;;;;;;8.73;6.22;;;;;;;21.82;13.52;103194.09;5088613;28;20047;-65
2022/03/22 10:40:26;;;;;;;12.70;6.90;;;;;;;21.83;13.84;103192.28;5088077;28;20044;-65
2022/03/22 10:42:57;;;;;;;11.15;6.85;;;;;;;22.07;13.57;103199.63;5087202;28;20389;-65
2022/03/22 10:45:23;;;;;;;13.15;6.50;;;;;;;22.20;13.74;103197.00;5088511;28;20121;-65
2022/03/22 10:47:50;;;;;;;14.02;6.82;;;;;;;22.23;13.51;103202.97;5088862;28;20135;-65
2022/03/22 10:50:18;;;;;;;10.02;6.63;;;;;;;22.30;13.65;103188.25;5087706;28;20098;-65
2022/03/22 10:52:56;;;;;;;12.30;7.20;;;;;;;22.46;13.50;103187.22;5087989;28;20158;-64
2022/03/22 10:55:25;;;;;;;11.07;6.75;;;;;;;22.50;13.45;103181.56;5087976;28;20059;-70
2022/03/22 10:57:57;;;;;;;8.18;6.28;;;;;;;22.58;13.18;103186.38;5089206;28;20052;-65
2022/03/22 11:00:25;;;;;;;10.50;6.47;;;;;;;22.63;13.04;103188.75;5088217;28;20044;-66
2022/03/22 11:02:55;;;;;;;11.25;6.75;;;;;;;22.69;13.01;103180.28;5088278;28;20102;-66
2022/03/22 11:05:24;;;;;;;10.32;7.00;;;;;;;22.79;12.95;103176.00;5088719;28;20102;-65
2022/03/22 11:07:52;;;;;;;8.40;6.60;;;;;;;22.87;13.12;103174.59;5089096;28;20117;-71
2022/03/22 11:10:30;;;;;;;11.43;7.32;;;;;;;22.90;12.95;103172.56;5088447;28;20052;-65
2022/03/22 11:12:58;;;;;;;9.32;7.07;;;;;;;22.97;13.05;103171.16;5074739;28;20090;-69
2022/03/22 11:15:35;;;;;;;8.10;6.75;;;;;;;23.05;13.08;103175.13;5088775;28;20056;-65
2022/03/22 11:18:03;;;;;;;10.68;7.63;;;;;;;23.08;13.05;103173.06;5088745;28;20048;-72
2022/03/22 11:20:30;;;;;;;10.15;7.15;;;;;;;23.13;13.00;103167.38;5088456;28;20573;-65
2022/03/22 11:23:00;;;;;;;9.50;7.00;;;;;;;23.17;12.54;103163.53;5087894;28;20044;-65
2022/03/22 11:25:34;;;;;;;8.30;5.70;;;;;;;23.17;13.36;103160.00;5088659;28;20044;-64
2022/03/22 11:28:12;;;;;;;8.47;7.33;;;;;;;23.27;13.52;103159.25;5088342;28;20558;-66
2022/03/22 11:30:40;;;;;;;9.93;7.35;;;;;;;23.39;13.41;103162.84;5080048;28;20071;-72
2022/03/22 11:35:59;;;;;;;11.95;7.10;;;;;;;23.61;13.41;103156.75;5085909;28;20051;-66
2022/03/22 11:38:40;;;;;;;12.75;7.47;;;;;;;23.70;13.65;103155.22;5084386;28;20492;-67
2022/03/22 11:44:16;;;;;;;13.90;7.32;;;;;;;23.72;13.42;103145.22;5085248;28;20089;-75
2022/03/22 11:46:44;;;;;;;22.45;7.63;;;;;;;23.81;13.56;103147.22;5086050;28;20040;-67
2022/03/22 11:49:22;;;;;;;11.73;7.85;;;;;;;23.95;13.27;103137.31;5087434;28;20131;-69
2022/03/22 11:52:12;;;;;;;11.95;7.10;;;;;;;23.89;13.46;103135.06;5085432;28;20048;-75
2022/03/22 11:54:40;;;;;;;11.18;7.43;;;;;;;23.87;13.68;103129.81;5086924;28;20047;-65
2022/03/22 11:57:08;;;;;;;10.15;7.18;;;;;;;24.02;13.19;103127.81;5086683;28;20044;-65